sensor_id;sensor_type;location;lat;lon;timestamp;P1;durP1;ratioP1;P2;durP2;ratioP2
26060;SDS011;36331;51.378;0.018;2022-08-16T00:00:12;5.05;;;4.65;;
26060;SDS011;36331;51.378;0.018;2022-08-16T00:02:48;7.03;;;4.30;;
26060;SDS011;36331;51.378;0.018;2022-08-16T00:05:18;5.30;;;3.83;;
26060;SDS011;36331;51.378;0.018;2022-08-16T00:07:48;4.97;;;4.47;;
26060;SDS011;36331;51.378;0.018;2022-08-16T00:10:23;5.55;;;4.20;;
26060;SDS011;36331;51.378;0.018;2022-08-16T00:12:54;5.05;;;4.55;;
26060;SDS011;36331;51.378;0.018;2022-08-16T00:15:27;8.00;;;4.30;;
26060;SDS011;36331;51.378;0.018;2022-08-16T00:18:18;4.35;;;3.75;;
26060;SDS011;36331;51.378;0.018;2022-08-16T00:20:55;5.03;;;4.20;;
26060;SDS011;36331;51.378;0.018;2022-08-16T00:23:26;5.82;;;3.97;;
26060;SDS011;36331;51.378;0.018;2022-08-16T00:26:06;6.38;;;4.22;;
26060;SDS011;36331;51.378;0.018;2022-08-16T00:28:56;4.88;;;4.35;;
26060;SDS011;36331;51.378;0.018;2022-08-16T00:31:27;8.75;;;4.50;;
26060;SDS011;36331;51.378;0.018;2022-08-16T00:34:20;5.53;;;4.03;;
26060;SDS011;36331;51.378;0.018;2022-08-16T00:37:10;7.63;;;4.57;;
26060;SDS011;36331;51.378;0.018;2022-08-16T00:39:45;5.45;;;4.93;;
26060;SDS011;36331;51.378;0.018;2022-08-16T00:42:26;7.70;;;4.95;;
26060;SDS011;36331;51.378;0.018;2022-08-16T00:45:04;5.70;;;4.38;;
26060;SDS011;36331;51.378;0.018;2022-08-16T00:47:40;6.03;;;4.75;;
26060;SDS011;36331;51.378;0.018;2022-08-16T00:50:16;5.72;;;5.13;;
26060;SDS011;36331;51.378;0.018;2022-08-16T00:53:02;6.35;;;4.57;;
26060;SDS011;36331;51.378;0.018;2022-08-16T00:55:34;6.27;;;4.97;;
26060;SDS011;36331;51.378;0.018;2022-08-16T00:58:05;6.30;;;4.68;;
26060;SDS011;36331;51.378;0.018;2022-08-16T01:00:42;5.43;;;4.88;;
26060;SDS011;36331;51.378;0.018;2022-08-16T01:03:22;6.35;;;4.53;;
26060;SDS011;36331;51.378;0.018;2022-08-16T01:05:57;6.63;;;5.10;;
26060;SDS011;36331;51.378;0.018;2022-08-16T01:08:47;5.40;;;4.90;;
26060;SDS011;36331;51.378;0.018;2022-08-16T01:11:18;6.80;;;5.72;;
26060;SDS011;36331;51.378;0.018;2022-08-16T01:13:50;5.45;;;4.75;;
26060;SDS011;36331;51.378;0.018;2022-08-16T01:16:23;6.03;;;4.90;;
26060;SDS011;36331;51.378;0.018;2022-08-16T01:18:59;8.18;;;5.30;;
26060;SDS011;36331;51.378;0.018;2022-08-16T01:21:34;7.75;;;5.72;;
26060;SDS011;36331;51.378;0.018;2022-08-16T01:27:13;6.20;;;5.60;;
26060;SDS011;36331;51.378;0.018;2022-08-16T01:29:46;6.30;;;5.53;;
26060;SDS011;36331;51.378;0.018;2022-08-16T01:32:26;5.55;;;5.00;;
26060;SDS011;36331;51.378;0.018;2022-08-16T01:35:03;6.80;;;6.10;;
26060;SDS011;36331;51.378;0.018;2022-08-16T01:37:37;7.00;;;5.93;;
26060;SDS011;36331;51.378;0.018;2022-08-16T01:40:11;6.45;;;5.85;;
26060;SDS011;36331;51.378;0.018;2022-08-16T01:42:46;10.57;;;6.45;;
26060;SDS011;36331;51.378;0.018;2022-08-16T01:45:20;8.23;;;6.57;;
26060;SDS011;36331;51.378;0.018;2022-08-16T01:48:11;7.13;;;6.13;;
26060;SDS011;36331;51.378;0.018;2022-08-16T01:50:46;6.43;;;5.70;;
26060;SDS011;36331;51.378;0.018;2022-08-16T01:53:37;6.53;;;5.72;;
26060;SDS011;36331;51.378;0.018;2022-08-16T01:56:25;7.80;;;6.53;;
26060;SDS011;36331;51.378;0.018;2022-08-16T01:58:58;8.73;;;6.78;;
26060;SDS011;36331;51.378;0.018;2022-08-16T02:01:29;8.45;;;6.07;;
26060;SDS011;36331;51.378;0.018;2022-08-16T02:04:00;7.90;;;7.20;;
26060;SDS011;36331;51.378;0.018;2022-08-16T02:06:41;7.13;;;6.43;;
26060;SDS011;36331;51.378;0.018;2022-08-16T02:09:17;7.55;;;6.85;;
26060;SDS011;36331;51.378;0.018;2022-08-16T02:11:50;7.03;;;6.38;;
26060;SDS011;36331;51.378;0.018;2022-08-16T02:14:24;7.38;;;6.68;;
26060;SDS011;36331;51.378;0.018;2022-08-16T02:16:57;9.10;;;6.82;;
26060;SDS011;36331;51.378;0.018;2022-08-16T02:19:32;9.23;;;7.30;;
26060;SDS011;36331;51.378;0.018;2022-08-16T02:22:25;7.88;;;7.18;;
26060;SDS011;36331;51.378;0.018;2022-08-16T02:25:05;9.50;;;8.20;;
26060;SDS011;36331;51.378;0.018;2022-08-16T02:27:36;9.40;;;8.18;;
26060;SDS011;36331;51.378;0.018;2022-08-16T02:30:18;11.00;;;7.78;;
26060;SDS011;36331;51.378;0.018;2022-08-16T02:33:08;11.23;;;9.05;;
26060;SDS011;36331;51.378;0.018;2022-08-16T02:35:38;11.48;;;8.75;;
26060;SDS011;36331;51.378;0.018;2022-08-16T02:38:24;12.95;;;9.05;;
26060;SDS011;36331;51.378;0.018;2022-08-16T02:40:56;10.20;;;8.90;;
26060;SDS011;36331;51.378;0.018;2022-08-16T02:43:38;9.55;;;8.63;;
26060;SDS011;36331;51.378;0.018;2022-08-16T02:46:16;10.25;;;9.02;;
26060;SDS011;36331;51.378;0.018;2022-08-16T02:49:00;10.65;;;8.38;;
26060;SDS011;36331;51.378;0.018;2022-08-16T02:51:34;12.02;;;8.57;;
26060;SDS011;36331;51.378;0.018;2022-08-16T02:54:07;12.35;;;8.38;;
26060;SDS011;36331;51.378;0.018;2022-08-16T02:56:37;8.57;;;7.78;;
26060;SDS011;36331;51.378;0.018;2022-08-16T02:59:06;9.52;;;8.25;;
26060;SDS011;36331;51.378;0.018;2022-08-16T03:01:43;9.73;;;8.73;;
26060;SDS011;36331;51.378;0.018;2022-08-16T03:04:25;9.73;;;8.35;;
26060;SDS011;36331;51.378;0.018;2022-08-16T03:07:14;10.10;;;8.57;;
26060;SDS011;36331;51.378;0.018;2022-08-16T03:09:55;9.38;;;8.48;;
26060;SDS011;36331;51.378;0.018;2022-08-16T03:12:29;10.73;;;8.18;;
26060;SDS011;36331;51.378;0.018;2022-08-16T03:15:06;13.63;;;10.13;;
26060;SDS011;36331;51.378;0.018;2022-08-16T03:17:37;10.43;;;8.57;;
26060;SDS011;36331;51.378;0.018;2022-08-16T03:20:22;9.95;;;8.80;;
26060;SDS011;36331;51.378;0.018;2022-08-16T03:22:59;10.18;;;8.68;;
26060;SDS011;36331;51.378;0.018;2022-08-16T03:25:29;10.35;;;8.60;;
26060;SDS011;36331;51.378;0.018;2022-08-16T03:28:11;11.23;;;9.10;;
26060;SDS011;36331;51.378;0.018;2022-08-16T03:30:45;9.98;;;8.27;;
26060;SDS011;36331;51.378;0.018;2022-08-16T03:33:17;8.98;;;8.07;;
26060;SDS011;36331;51.378;0.018;2022-08-16T03:35:53;9.55;;;8.65;;
26060;SDS011;36331;51.378;0.018;2022-08-16T03:38:52;11.23;;;8.20;;
26060;SDS011;36331;51.378;0.018;2022-08-16T03:41:22;11.25;;;9.43;;
26060;SDS011;36331;51.378;0.018;2022-08-16T03:44:12;10.88;;;8.85;;
26060;SDS011;36331;51.378;0.018;2022-08-16T03:47:03;9.68;;;8.80;;
26060;SDS011;36331;51.378;0.018;2022-08-16T03:49:38;10.63;;;9.60;;
26060;SDS011;36331;51.378;0.018;2022-08-16T03:52:09;9.15;;;8.10;;
26060;SDS011;36331;51.378;0.018;2022-08-16T03:54:42;12.18;;;9.27;;
26060;SDS011;36331;51.378;0.018;2022-08-16T03:57:24;10.68;;;9.30;;
26060;SDS011;36331;51.378;0.018;2022-08-16T04:00:04;9.75;;;8.65;;
26060;SDS011;36331;51.378;0.018;2022-08-16T04:03:03;12.70;;;9.18;;
26060;SDS011;36331;51.378;0.018;2022-08-16T04:05:41;10.73;;;8.90;;
26060;SDS011;36331;51.378;0.018;2022-08-16T04:08:14;10.05;;;9.10;;
26060;SDS011;36331;51.378;0.018;2022-08-16T04:10:55;9.70;;;8.40;;
26060;SDS011;36331;51.378;0.018;2022-08-16T04:13:26;12.82;;;10.15;;
26060;SDS011;36331;51.378;0.018;2022-08-16T04:16:19;10.70;;;8.15;;
26060;SDS011;36331;51.378;0.018;2022-08-16T04:19:00;8.68;;;7.93;;
26060;SDS011;36331;51.378;0.018;2022-08-16T04:21:35;10.07;;;8.48;;
26060;SDS011;36331;51.378;0.018;2022-08-16T04:24:15;10.90;;;9.57;;
26060;SDS011;36331;51.378;0.018;2022-08-16T04:26:47;10.23;;;9.05;;
26060;SDS011;36331;51.378;0.018;2022-08-16T04:29:16;10.48;;;9.00;;
26060;SDS011;36331;51.378;0.018;2022-08-16T04:31:52;14.50;;;9.68;;
26060;SDS011;36331;51.378;0.018;2022-08-16T04:34:29;9.93;;;8.77;;
26060;SDS011;36331;51.378;0.018;2022-08-16T04:37:02;11.95;;;8.95;;
26060;SDS011;36331;51.378;0.018;2022-08-16T04:39:39;11.18;;;9.98;;
26060;SDS011;36331;51.378;0.018;2022-08-16T04:42:23;10.50;;;9.40;;
26060;SDS011;36331;51.378;0.018;2022-08-16T04:44:57;11.00;;;9.57;;
26060;SDS011;36331;51.378;0.018;2022-08-16T04:47:32;10.63;;;9.52;;
26060;SDS011;36331;51.378;0.018;2022-08-16T04:50:09;11.43;;;9.52;;
26060;SDS011;36331;51.378;0.018;2022-08-16T04:52:59;12.43;;;9.57;;
26060;SDS011;36331;51.378;0.018;2022-08-16T04:55:35;13.30;;;11.02;;
26060;SDS011;36331;51.378;0.018;2022-08-16T04:58:07;11.70;;;9.85;;
26060;SDS011;36331;51.378;0.018;2022-08-16T05:01:02;10.98;;;9.40;;
26060;SDS011;36331;51.378;0.018;2022-08-16T05:03:42;12.45;;;10.30;;
26060;SDS011;36331;51.378;0.018;2022-08-16T05:06:33;10.07;;;9.18;;
26060;SDS011;36331;51.378;0.018;2022-08-16T05:09:21;11.10;;;9.63;;
26060;SDS011;36331;51.378;0.018;2022-08-16T05:11:56;9.77;;;8.77;;
26060;SDS011;36331;51.378;0.018;2022-08-16T05:14:26;10.63;;;9.23;;
26060;SDS011;36331;51.378;0.018;2022-08-16T05:17:22;11.70;;;10.07;;
26060;SDS011;36331;51.378;0.018;2022-08-16T05:19:56;12.10;;;9.65;;
26060;SDS011;36331;51.378;0.018;2022-08-16T05:22:34;13.05;;;11.10;;
26060;SDS011;36331;51.378;0.018;2022-08-16T05:25:08;12.25;;;10.25;;
26060;SDS011;36331;51.378;0.018;2022-08-16T05:27:49;11.57;;;9.77;;
26060;SDS011;36331;51.378;0.018;2022-08-16T05:30:20;11.95;;;9.88;;
26060;SDS011;36331;51.378;0.018;2022-08-16T05:33:06;13.00;;;10.07;;
26060;SDS011;36331;51.378;0.018;2022-08-16T05:35:48;11.45;;;10.25;;
26060;SDS011;36331;51.378;0.018;2022-08-16T05:38:40;10.98;;;9.57;;
26060;SDS011;36331;51.378;0.018;2022-08-16T05:41:17;11.52;;;10.35;;
26060;SDS011;36331;51.378;0.018;2022-08-16T05:43:49;11.27;;;9.32;;
26060;SDS011;36331;51.378;0.018;2022-08-16T05:46:34;12.85;;;10.15;;
26060;SDS011;36331;51.378;0.018;2022-08-16T05:49:17;11.18;;;9.68;;
26060;SDS011;36331;51.378;0.018;2022-08-16T05:51:53;13.07;;;9.82;;
26060;SDS011;36331;51.378;0.018;2022-08-16T05:54:24;13.52;;;10.20;;
26060;SDS011;36331;51.378;0.018;2022-08-16T05:57:00;13.68;;;10.20;;
26060;SDS011;36331;51.378;0.018;2022-08-16T05:59:30;11.25;;;10.02;;
26060;SDS011;36331;51.378;0.018;2022-08-16T06:02:04;11.20;;;10.13;;
26060;SDS011;36331;51.378;0.018;2022-08-16T06:04:35;10.63;;;9.63;;
26060;SDS011;36331;51.378;0.018;2022-08-16T06:07:14;15.32;;;11.55;;
26060;SDS011;36331;51.378;0.018;2022-08-16T06:09:55;15.65;;;9.93;;
26060;SDS011;36331;51.378;0.018;2022-08-16T06:12:30;11.95;;;10.25;;
26060;SDS011;36331;51.378;0.018;2022-08-16T06:15:06;13.23;;;10.27;;
26060;SDS011;36331;51.378;0.018;2022-08-16T06:17:40;11.27;;;9.30;;
26060;SDS011;36331;51.378;0.018;2022-08-16T06:20:21;10.50;;;9.40;;
26060;SDS011;36331;51.378;0.018;2022-08-16T06:23:19;11.70;;;10.00;;
26060;SDS011;36331;51.378;0.018;2022-08-16T06:25:57;10.90;;;9.85;;
26060;SDS011;36331;51.378;0.018;2022-08-16T06:28:43;10.85;;;9.73;;
26060;SDS011;36331;51.378;0.018;2022-08-16T06:31:27;11.95;;;9.70;;
26060;SDS011;36331;51.378;0.018;2022-08-16T06:33:57;10.55;;;9.35;;
26060;SDS011;36331;51.378;0.018;2022-08-16T06:36:31;12.60;;;10.98;;
26060;SDS011;36331;51.378;0.018;2022-08-16T06:39:22;11.57;;;10.38;;
26060;SDS011;36331;51.378;0.018;2022-08-16T06:42:05;11.18;;;9.63;;
26060;SDS011;36331;51.378;0.018;2022-08-16T06:44:59;14.43;;;11.07;;
26060;SDS011;36331;51.378;0.018;2022-08-16T06:47:47;15.20;;;11.48;;
26060;SDS011;36331;51.378;0.018;2022-08-16T06:50:27;12.57;;;11.32;;
26060;SDS011;36331;51.378;0.018;2022-08-16T06:53:06;12.25;;;9.70;;
26060;SDS011;36331;51.378;0.018;2022-08-16T06:55:54;14.05;;;11.18;;
26060;SDS011;36331;51.378;0.018;2022-08-16T06:58:40;11.43;;;10.23;;
26060;SDS011;36331;51.378;0.018;2022-08-16T07:01:30;13.63;;;10.52;;
26060;SDS011;36331;51.378;0.018;2022-08-16T07:04:20;13.52;;;10.38;;
26060;SDS011;36331;51.378;0.018;2022-08-16T07:07:12;11.90;;;10.63;;
26060;SDS011;36331;51.378;0.018;2022-08-16T07:09:43;11.80;;;10.60;;
26060;SDS011;36331;51.378;0.018;2022-08-16T07:12:27;12.52;;;10.65;;
26060;SDS011;36331;51.378;0.018;2022-08-16T07:15:16;10.70;;;9.27;;
26060;SDS011;36331;51.378;0.018;2022-08-16T07:17:53;12.35;;;9.60;;
26060;SDS011;36331;51.378;0.018;2022-08-16T07:20:24;11.43;;;10.23;;
26060;SDS011;36331;51.378;0.018;2022-08-16T07:23:20;13.60;;;9.82;;
26060;SDS011;36331;51.378;0.018;2022-08-16T07:26:13;10.85;;;8.88;;
26060;SDS011;36331;51.378;0.018;2022-08-16T07:29:10;11.50;;;9.65;;
26060;SDS011;36331;51.378;0.018;2022-08-16T07:32:00;16.23;;;9.98;;
26060;SDS011;36331;51.378;0.018;2022-08-16T07:34:35;11.95;;;9.20;;
26060;SDS011;36331;51.378;0.018;2022-08-16T07:37:18;11.93;;;9.07;;
26060;SDS011;36331;51.378;0.018;2022-08-16T07:40:11;10.52;;;8.98;;
26060;SDS011;36331;51.378;0.018;2022-08-16T07:42:44;13.45;;;8.85;;
26060;SDS011;36331;51.378;0.018;2022-08-16T07:45:25;11.95;;;8.57;;
26060;SDS011;36331;51.378;0.018;2022-08-16T07:48:01;14.18;;;9.77;;
26060;SDS011;36331;51.378;0.018;2022-08-16T07:50:47;10.52;;;8.52;;
26060;SDS011;36331;51.378;0.018;2022-08-16T07:53:26;13.93;;;9.55;;
26060;SDS011;36331;51.378;0.018;2022-08-16T07:56:00;12.80;;;10.18;;
26060;SDS011;36331;51.378;0.018;2022-08-16T07:58:52;15.70;;;9.48;;
26060;SDS011;36331;51.378;0.018;2022-08-16T08:01:27;11.55;;;9.02;;
26060;SDS011;36331;51.378;0.018;2022-08-16T08:03:59;11.60;;;10.15;;
26060;SDS011;36331;51.378;0.018;2022-08-16T08:06:41;12.30;;;10.52;;
26060;SDS011;36331;51.378;0.018;2022-08-16T08:09:17;13.00;;;11.13;;
26060;SDS011;36331;51.378;0.018;2022-08-16T08:11:49;11.90;;;9.75;;
26060;SDS011;36331;51.378;0.018;2022-08-16T08:14:32;13.75;;;11.07;;
26060;SDS011;36331;51.378;0.018;2022-08-16T08:17:07;11.88;;;10.65;;
26060;SDS011;36331;51.378;0.018;2022-08-16T08:19:39;12.05;;;10.18;;
26060;SDS011;36331;51.378;0.018;2022-08-16T08:22:21;14.63;;;10.63;;
26060;SDS011;36331;51.378;0.018;2022-08-16T08:24:55;13.10;;;10.05;;
26060;SDS011;36331;51.378;0.018;2022-08-16T08:27:32;13.05;;;10.27;;
26060;SDS011;36331;51.378;0.018;2022-08-16T08:30:03;14.55;;;11.73;;
26060;SDS011;36331;51.378;0.018;2022-08-16T08:32:56;28.92;;;12.63;;
26060;SDS011;36331;51.378;0.018;2022-08-16T08:35:40;12.35;;;11.07;;
26060;SDS011;36331;51.378;0.018;2022-08-16T08:38:15;12.57;;;10.85;;
26060;SDS011;36331;51.378;0.018;2022-08-16T08:41:05;15.57;;;12.50;;
26060;SDS011;36331;51.378;0.018;2022-08-16T08:43:35;13.60;;;11.43;;
26060;SDS011;36331;51.378;0.018;2022-08-16T08:46:09;16.33;;;11.18;;
26060;SDS011;36331;51.378;0.018;2022-08-16T08:48:47;15.48;;;12.10;;
26060;SDS011;36331;51.378;0.018;2022-08-16T08:51:35;14.73;;;12.98;;
26060;SDS011;36331;51.378;0.018;2022-08-16T08:54:14;13.93;;;12.50;;
26060;SDS011;36331;51.378;0.018;2022-08-16T08:56:53;12.80;;;11.52;;
26060;SDS011;36331;51.378;0.018;2022-08-16T08:59:31;14.10;;;11.13;;
26060;SDS011;36331;51.378;0.018;2022-08-16T09:02:10;13.52;;;12.15;;
26060;SDS011;36331;51.378;0.018;2022-08-16T09:04:51;14.07;;;12.55;;
26060;SDS011;36331;51.378;0.018;2022-08-16T09:07:31;14.05;;;10.88;;
26060;SDS011;36331;51.378;0.018;2022-08-16T09:10:37;17.05;;;11.63;;
26060;SDS011;36331;51.378;0.018;2022-08-16T09:13:12;16.20;;;11.15;;
26060;SDS011;36331;51.378;0.018;2022-08-16T09:15:46;18.50;;;12.25;;
26060;SDS011;36331;51.378;0.018;2022-08-16T09:18:17;16.27;;;10.87;;
26060;SDS011;36331;51.378;0.018;2022-08-16T09:20:54;14.60;;;10.32;;
26060;SDS011;36331;51.378;0.018;2022-08-16T09:23:31;14.98;;;10.60;;
26060;SDS011;36331;51.378;0.018;2022-08-16T09:26:07;14.27;;;11.15;;
26060;SDS011;36331;51.378;0.018;2022-08-16T09:29:02;12.95;;;10.20;;
26060;SDS011;36331;51.378;0.018;2022-08-16T09:31:47;10.90;;;9.80;;
26060;SDS011;36331;51.378;0.018;2022-08-16T09:34:20;12.63;;;10.20;;
26060;SDS011;36331;51.378;0.018;2022-08-16T09:36:49;13.18;;;10.15;;
26060;SDS011;36331;51.378;0.018;2022-08-16T09:39:20;16.92;;;11.07;;
26060;SDS011;36331;51.378;0.018;2022-08-16T09:41:51;16.83;;;11.32;;
26060;SDS011;36331;51.378;0.018;2022-08-16T09:44:24;14.88;;;11.82;;
26060;SDS011;36331;51.378;0.018;2022-08-16T09:47:14;12.80;;;9.60;;
26060;SDS011;36331;51.378;0.018;2022-08-16T09:49:49;15.43;;;11.23;;
26060;SDS011;36331;51.378;0.018;2022-08-16T09:52:21;16.67;;;11.65;;
26060;SDS011;36331;51.378;0.018;2022-08-16T09:54:56;17.60;;;12.70;;
26060;SDS011;36331;51.378;0.018;2022-08-16T09:57:27;11.43;;;10.32;;
26060;SDS011;36331;51.378;0.018;2022-08-16T10:00:01;14.90;;;11.68;;
26060;SDS011;36331;51.378;0.018;2022-08-16T10:02:53;20.98;;;12.98;;
26060;SDS011;36331;51.378;0.018;2022-08-16T10:05:26;22.17;;;12.52;;
26060;SDS011;36331;51.378;0.018;2022-08-16T10:07:59;15.43;;;12.25;;
26060;SDS011;36331;51.378;0.018;2022-08-16T10:10:49;14.27;;;12.75;;
26060;SDS011;36331;51.378;0.018;2022-08-16T10:13:39;19.67;;;13.77;;
26060;SDS011;36331;51.378;0.018;2022-08-16T10:16:13;19.38;;;13.07;;
26060;SDS011;36331;51.378;0.018;2022-08-16T10:18:52;23.08;;;15.55;;
26060;SDS011;36331;51.378;0.018;2022-08-16T10:21:35;22.50;;;14.82;;
26060;SDS011;36331;51.378;0.018;2022-08-16T10:26:37;16.70;;;13.50;;
26060;SDS011;36331;51.378;0.018;2022-08-16T10:29:29;23.55;;;14.52;;
26060;SDS011;36331;51.378;0.018;2022-08-16T10:32:19;20.02;;;14.10;;
26060;SDS011;36331;51.378;0.018;2022-08-16T10:34:48;17.42;;;12.90;;
26060;SDS011;36331;51.378;0.018;2022-08-16T10:37:20;16.80;;;11.63;;
26060;SDS011;36331;51.378;0.018;2022-08-16T10:40:05;17.08;;;11.65;;
26060;SDS011;36331;51.378;0.018;2022-08-16T10:42:55;12.73;;;10.20;;
26060;SDS011;36331;51.378;0.018;2022-08-16T10:45:36;12.52;;;10.20;;
26060;SDS011;36331;51.378;0.018;2022-08-16T10:48:11;12.63;;;9.73;;
26060;SDS011;36331;51.378;0.018;2022-08-16T10:50:54;16.60;;;10.70;;
26060;SDS011;36331;51.378;0.018;2022-08-16T10:53:25;15.02;;;10.40;;
26060;SDS011;36331;51.378;0.018;2022-08-16T10:56:02;11.63;;;9.20;;
26060;SDS011;36331;51.378;0.018;2022-08-16T10:58:53;10.52;;;9.10;;
26060;SDS011;36331;51.378;0.018;2022-08-16T11:01:46;13.00;;;10.65;;
26060;SDS011;36331;51.378;0.018;2022-08-16T11:04:40;11.73;;;10.63;;
26060;SDS011;36331;51.378;0.018;2022-08-16T11:07:30;12.52;;;10.02;;
26060;SDS011;36331;51.378;0.018;2022-08-16T11:10:19;11.73;;;8.32;;
26060;SDS011;36331;51.378;0.018;2022-08-16T11:13:15;9.50;;;7.25;;
26060;SDS011;36331;51.378;0.018;2022-08-16T11:16:05;9.05;;;7.68;;
26060;SDS011;36331;51.378;0.018;2022-08-16T11:19:01;8.65;;;7.68;;
26060;SDS011;36331;51.378;0.018;2022-08-16T11:21:39;11.38;;;7.72;;
26060;SDS011;36331;51.378;0.018;2022-08-16T11:24:30;8.15;;;6.40;;
26060;SDS011;36331;51.378;0.018;2022-08-16T11:27:10;8.57;;;6.53;;
26060;SDS011;36331;51.378;0.018;2022-08-16T11:29:51;8.17;;;4.90;;
26060;SDS011;36331;51.378;0.018;2022-08-16T11:32:26;8.18;;;6.05;;
26060;SDS011;36331;51.378;0.018;2022-08-16T11:35:03;7.07;;;6.18;;
26060;SDS011;36331;51.378;0.018;2022-08-16T11:37:38;7.22;;;6.43;;
26060;SDS011;36331;51.378;0.018;2022-08-16T11:40:29;7.88;;;5.53;;
26060;SDS011;36331;51.378;0.018;2022-08-16T11:43:03;10.95;;;5.50;;
26060;SDS011;36331;51.378;0.018;2022-08-16T11:45:36;6.30;;;4.90;;
26060;SDS011;36331;51.378;0.018;2022-08-16T11:48:10;6.20;;;5.57;;
26060;SDS011;36331;51.378;0.018;2022-08-16T11:50:42;7.35;;;5.40;;
26060;SDS011;36331;51.378;0.018;2022-08-16T11:53:39;5.40;;;4.53;;
26060;SDS011;36331;51.378;0.018;2022-08-16T11:56:08;3.80;;;3.50;;
26060;SDS011;36331;51.378;0.018;2022-08-16T11:58:41;7.80;;;4.18;;
26060;SDS011;36331;51.378;0.018;2022-08-16T12:01:22;4.50;;;2.65;;
26060;SDS011;36331;51.378;0.018;2022-08-16T12:03:58;4.05;;;2.60;;
26060;SDS011;36331;51.378;0.018;2022-08-16T12:06:33;4.97;;;2.88;;
26060;SDS011;36331;51.378;0.018;2022-08-16T12:09:03;6.22;;;3.45;;
26060;SDS011;36331;51.378;0.018;2022-08-16T12:11:36;3.50;;;3.13;;
26060;SDS011;36331;51.378;0.018;2022-08-16T12:14:11;2.92;;;2.30;;
26060;SDS011;36331;51.378;0.018;2022-08-16T12:16:42;3.35;;;1.85;;
26060;SDS011;36331;51.378;0.018;2022-08-16T12:19:24;3.13;;;1.83;;
26060;SDS011;36331;51.378;0.018;2022-08-16T12:22:03;2.75;;;2.25;;
26060;SDS011;36331;51.378;0.018;2022-08-16T12:24:45;2.33;;;2.13;;
26060;SDS011;36331;51.378;0.018;2022-08-16T12:27:19;3.03;;;2.50;;
26060;SDS011;36331;51.378;0.018;2022-08-16T12:29:51;3.95;;;2.13;;
26060;SDS011;36331;51.378;0.018;2022-08-16T12:32:25;2.30;;;2.10;;
26060;SDS011;36331;51.378;0.018;2022-08-16T12:35:08;2.58;;;2.00;;
26060;SDS011;36331;51.378;0.018;2022-08-16T12:37:45;3.47;;;2.28;;
26060;SDS011;36331;51.378;0.018;2022-08-16T12:40:22;2.35;;;2.15;;
26060;SDS011;36331;51.378;0.018;2022-08-16T12:42:55;4.00;;;1.50;;
26060;SDS011;36331;51.378;0.018;2022-08-16T12:45:30;3.47;;;1.90;;
26060;SDS011;36331;51.378;0.018;2022-08-16T12:51:00;2.92;;;2.28;;
26060;SDS011;36331;51.378;0.018;2022-08-16T12:53:31;3.25;;;2.00;;
26060;SDS011;36331;51.378;0.018;2022-08-16T12:56:07;3.50;;;1.55;;
26060;SDS011;36331;51.378;0.018;2022-08-16T12:58:38;2.00;;;1.80;;
26060;SDS011;36331;51.378;0.018;2022-08-16T13:01:17;1.20;;;1.10;;
26060;SDS011;36331;51.378;0.018;2022-08-16T13:03:52;0.82;;;0.70;;
26060;SDS011;36331;51.378;0.018;2022-08-16T13:06:42;1.60;;;1.50;;
26060;SDS011;36331;51.378;0.018;2022-08-16T13:09:18;2.42;;;1.00;;
26060;SDS011;36331;51.378;0.018;2022-08-16T13:11:57;3.88;;;1.27;;
26060;SDS011;36331;51.378;0.018;2022-08-16T13:14:32;2.72;;;1.45;;
26060;SDS011;36331;51.378;0.018;2022-08-16T13:17:04;1.92;;;1.00;;
26060;SDS011;36331;51.378;0.018;2022-08-16T13:19:34;1.03;;;0.90;;
26060;SDS011;36331;51.378;0.018;2022-08-16T13:22:24;2.17;;;0.95;;
26060;SDS011;36331;51.378;0.018;2022-08-16T13:24:55;1.80;;;0.90;;
26060;SDS011;36331;51.378;0.018;2022-08-16T13:27:24;2.55;;;1.17;;
26060;SDS011;36331;51.378;0.018;2022-08-16T13:30:14;2.28;;;1.25;;
26060;SDS011;36331;51.378;0.018;2022-08-16T13:33:04;2.67;;;1.30;;
26060;SDS011;36331;51.378;0.018;2022-08-16T13:35:40;2.00;;;1.42;;
26060;SDS011;36331;51.378;0.018;2022-08-16T13:38:12;2.72;;;1.17;;
26060;SDS011;36331;51.378;0.018;2022-08-16T13:40:53;3.05;;;2.05;;
26060;SDS011;36331;51.378;0.018;2022-08-16T13:43:27;4.18;;;2.22;;
26060;SDS011;36331;51.378;0.018;2022-08-16T13:45:59;3.95;;;2.45;;
26060;SDS011;36331;51.378;0.018;2022-08-16T13:48:32;5.18;;;2.90;;
26060;SDS011;36331;51.378;0.018;2022-08-16T13:51:11;3.80;;;2.22;;
26060;SDS011;36331;51.378;0.018;2022-08-16T13:53:43;5.03;;;3.00;;
26060;SDS011;36331;51.378;0.018;2022-08-16T13:56:28;2.75;;;2.35;;
26060;SDS011;36331;51.378;0.018;2022-08-16T13:59:05;5.10;;;3.08;;
26060;SDS011;36331;51.378;0.018;2022-08-16T14:01:47;2.63;;;2.20;;
26060;SDS011;36331;51.378;0.018;2022-08-16T14:04:22;2.40;;;2.03;;
26060;SDS011;36331;51.378;0.018;2022-08-16T14:06:54;1.20;;;0.90;;
26060;SDS011;36331;51.378;0.018;2022-08-16T14:09:24;4.55;;;1.90;;
26060;SDS011;36331;51.378;0.018;2022-08-16T14:11:56;2.20;;;1.40;;
26060;SDS011;36331;51.378;0.018;2022-08-16T14:14:28;2.20;;;1.10;;
26060;SDS011;36331;51.378;0.018;2022-08-16T14:17:00;2.05;;;1.25;;
26060;SDS011;36331;51.378;0.018;2022-08-16T14:19:30;2.95;;;1.40;;
26060;SDS011;36331;51.378;0.018;2022-08-16T14:22:01;2.42;;;1.83;;
26060;SDS011;36331;51.378;0.018;2022-08-16T14:24:42;1.85;;;1.10;;
26060;SDS011;36331;51.378;0.018;2022-08-16T14:29:45;2.58;;;1.50;;
26060;SDS011;36331;51.378;0.018;2022-08-16T14:32:16;3.22;;;1.73;;
26060;SDS011;36331;51.378;0.018;2022-08-16T14:35:01;3.45;;;2.25;;
26060;SDS011;36331;51.378;0.018;2022-08-16T14:37:33;2.90;;;2.58;;
26060;SDS011;36331;51.378;0.018;2022-08-16T14:40:03;3.95;;;2.30;;
26060;SDS011;36331;51.378;0.018;2022-08-16T14:42:34;2.47;;;2.28;;
26060;SDS011;36331;51.378;0.018;2022-08-16T14:45:06;4.95;;;2.72;;
26060;SDS011;36331;51.378;0.018;2022-08-16T14:47:36;4.10;;;2.17;;
26060;SDS011;36331;51.378;0.018;2022-08-16T14:50:11;3.05;;;2.20;;
26060;SDS011;36331;51.378;0.018;2022-08-16T14:52:42;4.07;;;2.63;;
26060;SDS011;36331;51.378;0.018;2022-08-16T14:55:24;3.10;;;2.78;;
26060;SDS011;36331;51.378;0.018;2022-08-16T14:57:53;3.38;;;2.47;;
26060;SDS011;36331;51.378;0.018;2022-08-16T15:00:26;3.55;;;2.90;;
26060;SDS011;36331;51.378;0.018;2022-08-16T15:03:03;5.38;;;2.90;;
26060;SDS011;36331;51.378;0.018;2022-08-16T15:05:36;3.40;;;2.92;;
26060;SDS011;36331;51.378;0.018;2022-08-16T15:08:08;3.05;;;2.78;;
26060;SDS011;36331;51.378;0.018;2022-08-16T15:10:37;4.20;;;3.05;;
26060;SDS011;36331;51.378;0.018;2022-08-16T15:13:12;4.93;;;3.38;;
26060;SDS011;36331;51.378;0.018;2022-08-16T15:15:46;3.63;;;2.85;;
26060;SDS011;36331;51.378;0.018;2022-08-16T15:18:27;5.55;;;2.70;;
26060;SDS011;36331;51.378;0.018;2022-08-16T15:20:58;4.78;;;3.33;;
26060;SDS011;36331;51.378;0.018;2022-08-16T15:23:28;7.00;;;5.18;;
26060;SDS011;36331;51.378;0.018;2022-08-16T15:26:00;6.50;;;4.70;;
26060;SDS011;36331;51.378;0.018;2022-08-16T15:28:34;5.20;;;4.63;;
26060;SDS011;36331;51.378;0.018;2022-08-16T15:31:06;5.18;;;4.43;;
26060;SDS011;36331;51.378;0.018;2022-08-16T15:33:40;8.13;;;6.07;;
26060;SDS011;36331;51.378;0.018;2022-08-16T15:36:18;5.38;;;4.38;;
26060;SDS011;36331;51.378;0.018;2022-08-16T15:38:52;5.00;;;4.38;;
26060;SDS011;36331;51.378;0.018;2022-08-16T15:41:55;6.97;;;4.97;;
26060;SDS011;36331;51.378;0.018;2022-08-16T15:44:27;5.55;;;4.97;;
26060;SDS011;36331;51.378;0.018;2022-08-16T15:47:19;6.78;;;5.25;;
26060;SDS011;36331;51.378;0.018;2022-08-16T15:49:55;8.02;;;5.40;;
26060;SDS011;36331;51.378;0.018;2022-08-16T15:52:27;6.47;;;5.00;;
26060;SDS011;36331;51.378;0.018;2022-08-16T15:54:57;6.28;;;5.05;;